createdAt,value
2023-04-16T00:02:25.733Z,100198.59
2023-04-16T00:05:28.428Z,100197.50
2023-04-16T00:08:30.583Z,100194.59
2023-04-16T00:11:33.039Z,100194.69
2023-04-16T00:14:35.334Z,100199.28
2023-04-16T00:17:37.841Z,100196.75
2023-04-16T00:20:40.086Z,100195.72
2023-04-16T00:23:42.753Z,100192.78
2023-04-16T00:26:46.339Z,100187.53
2023-04-16T00:29:49.047Z,100187.06
2023-04-16T00:32:51.273Z,100190.53
2023-04-16T00:35:53.858Z,100193.03
2023-04-16T00:38:57.166Z,100198.03
2023-04-16T00:41:59.742Z,100197.19
2023-04-16T00:45:02.159Z,100199.34
2023-04-16T00:48:05.949Z,100193.41
2023-04-16T00:51:08.759Z,100195.50
2023-04-16T00:54:11.257Z,100193.44
2023-04-16T00:57:14.431Z,100181.78
2023-04-16T01:00:17.199Z,100188.84
2023-04-16T01:03:19.781Z,100183.91
2023-04-16T01:06:23.720Z,100185.97
2023-04-16T01:09:26.311Z,100192.75
2023-04-16T01:12:29.066Z,100204.19
2023-04-16T01:15:31.706Z,100204.78
2023-04-16T01:18:35.675Z,100204.56
2023-04-16T01:21:37.966Z,100206.34
2023-04-16T01:24:40.685Z,100206.66
2023-04-16T01:27:45.772Z,100212.00
2023-04-16T01:30:48.304Z,100206.25
2023-04-16T01:33:51.563Z,100210.91
2023-04-16T01:36:54.056Z,100214.16
2023-04-16T01:39:56.382Z,100212.28
2023-04-16T01:42:58.871Z,100219.75
2023-04-16T01:46:20.996Z,100209.44
2023-04-16T01:49:23.593Z,100211.19
2023-04-16T01:52:25.874Z,100210.16
2023-04-16T01:55:28.410Z,100208.19
2023-04-16T01:58:32.633Z,100198.88
2023-04-16T02:01:35.629Z,100202.91
2023-04-16T02:04:43.830Z,100210.91
2023-04-16T02:07:46.106Z,100212.31
2023-04-16T02:10:50.592Z,100214.19
2023-04-16T02:13:52.830Z,100218.16
2023-04-16T02:16:55.504Z,100221.16
2023-04-16T02:19:58.256Z,100232.06
2023-04-16T02:23:00.841Z,100234.59
2023-04-16T02:26:03.776Z,100231.31
2023-04-16T02:29:06.585Z,100227.63
2023-04-16T02:32:10.445Z,100223.22
2023-04-16T02:35:15.321Z,100227.37
2023-04-16T02:38:17.541Z,100232.16
2023-04-16T02:41:20.364Z,100228.88
2023-04-16T02:44:22.594Z,100226.59
2023-04-16T02:47:25.430Z,100219.63
2023-04-16T02:50:27.658Z,100220.88
2023-04-16T02:53:30.184Z,100213.53
2023-04-16T02:56:32.403Z,100217.22
2023-04-16T02:59:34.897Z,100218.25
2023-04-16T03:02:37.368Z,100229.44
2023-04-16T03:05:40.459Z,100228.59
2023-04-16T03:08:42.774Z,100230.28
2023-04-16T03:11:45.391Z,100231.13
2023-04-16T03:14:47.674Z,100232.63
2023-04-16T03:17:50.135Z,100229.63
2023-04-16T03:20:53.248Z,100232.53
2023-04-16T03:23:56.127Z,100238.84
2023-04-16T03:26:58.895Z,100245.22
2023-04-16T03:30:02.427Z,100243.53
2023-04-16T03:33:06.863Z,100254.25
2023-04-16T03:36:10.138Z,100257.81
2023-04-16T03:39:12.483Z,100264.56
2023-04-16T03:42:15.121Z,100269.66
2023-04-16T03:45:17.335Z,100276.03
2023-04-16T03:48:20.455Z,100279.06
2023-04-16T03:51:22.817Z,100287.34
2023-04-16T03:54:25.488Z,100290.94
2023-04-16T03:57:28.272Z,100294.50
2023-04-16T04:00:31.507Z,100297.13
2023-04-16T04:03:34.455Z,100290.06
2023-04-16T04:06:37.432Z,100287.94
2023-04-16T04:09:39.948Z,100285.41
2023-04-16T04:12:43.404Z,100287.09
2023-04-16T04:15:45.951Z,100290.88
2023-04-16T04:18:48.211Z,100294.84
2023-04-16T04:21:51.036Z,100286.34
2023-04-16T04:24:53.379Z,100289.38
2023-04-16T04:27:55.901Z,100293.69
2023-04-16T04:30:58.990Z,100305.19
2023-04-16T04:34:01.521Z,100307.25
2023-04-16T04:37:03.914Z,100308.84
2023-04-16T04:40:07.243Z,100316.47
2023-04-16T04:43:10.006Z,100310.25
2023-04-16T04:46:12.676Z,100313.75
2023-04-16T04:49:15.707Z,100314.97
2023-04-16T04:52:18.191Z,100316.88
2023-04-16T04:55:20.669Z,100312.75
2023-04-16T04:58:23.158Z,100319.81
2023-04-16T05:01:25.597Z,100320.62
2023-04-16T05:04:28.158Z,100320.62
2023-04-16T05:07:30.758Z,100318.94
2023-04-16T05:10:33.475Z,100324.19
2023-04-16T05:13:35.644Z,100332.31
2023-04-16T05:16:38.377Z,100313.78
2023-04-16T05:19:40.601Z,100312.91
2023-04-16T05:22:43.064Z,100316.50
2023-04-16T05:25:45.384Z,100325.13
2023-04-16T05:28:47.897Z,100328.72
2023-04-16T05:31:50.276Z,100342.94
2023-04-16T05:34:52.757Z,100346.72
2023-04-16T05:37:54.883Z,100349.53
2023-04-16T05:40:58.634Z,100344.63
2023-04-16T05:44:00.856Z,100353.47
2023-04-16T05:47:03.328Z,100348.50
2023-04-16T05:50:06.308Z,100354.34
2023-04-16T05:53:09.537Z,100353.59
2023-04-16T05:56:11.798Z,100352.47
2023-04-16T05:59:14.360Z,100361.03
2023-04-16T06:02:16.766Z,100361.88
2023-04-16T06:05:19.393Z,100371.59
2023-04-16T06:08:21.677Z,100366.56
2023-04-16T06:11:24.280Z,100370.50
2023-04-16T06:14:26.454Z,100368.16
2023-04-16T06:17:28.945Z,100364.12
2023-04-16T06:20:31.384Z,100363.59
2023-04-16T06:23:33.892Z,100356.78
2023-04-16T06:26:36.157Z,100365.09
2023-04-16T06:29:41.579Z,100356.81
2023-04-16T06:32:44.531Z,100361.94
2023-04-16T06:35:47.236Z,100362.19
2023-04-16T06:38:49.365Z,100365.91
2023-04-16T06:41:51.967Z,100359.06
2023-04-16T06:44:54.105Z,100370.78
2023-04-16T06:47:58.874Z,100373.09
2023-04-16T06:51:01.882Z,100365.41
2023-04-16T06:54:04.597Z,100365.75
2023-04-16T06:57:06.922Z,100365.59
2023-04-16T07:00:10.048Z,100366.94
2023-04-16T07:03:12.421Z,100367.50
2023-04-16T07:06:15.273Z,100374.66
2023-04-16T07:09:20.503Z,100376.22
2023-04-16T07:12:23.243Z,100377.19
2023-04-16T07:15:25.541Z,100373.31
2023-04-16T07:18:28.070Z,100374.53
2023-04-16T07:21:31.550Z,100374.75
2023-04-16T07:24:34.228Z,100367.09
2023-04-16T07:27:36.465Z,100370.78
2023-04-16T07:30:39.053Z,100372.75
2023-04-16T07:33:41.313Z,100375.22
2023-04-16T07:36:43.801Z,100368.59
2023-04-16T07:39:46.018Z,100373.00
2023-04-16T07:42:48.829Z,100370.72
2023-04-16T07:45:51.031Z,100374.12
2023-04-16T07:48:53.564Z,100365.72
2023-04-16T07:51:55.728Z,100370.75
2023-04-16T07:54:58.212Z,100371.31
2023-04-16T07:58:00.643Z,100375.94
2023-04-16T08:01:03.155Z,100372.22
2023-04-16T08:04:05.846Z,100381.72
2023-04-16T08:07:08.187Z,100377.16
2023-04-16T08:10:11.037Z,100372.53
2023-04-16T08:13:13.294Z,100370.19
2023-04-16T08:16:15.796Z,100374.38
2023-04-16T08:19:18.437Z,100369.47
2023-04-16T08:22:21.208Z,100372.47
2023-04-16T08:25:24.688Z,100384.56
2023-04-16T08:28:27.140Z,100391.50
2023-04-16T08:31:29.536Z,100384.69
2023-04-16T08:34:32.426Z,100383.09
2023-04-16T08:37:34.642Z,100378.72
2023-04-16T08:40:41.645Z,100389.84
2023-04-16T08:43:45.403Z,100394.09
2023-04-16T08:46:48.692Z,100397.69
2023-04-16T08:49:55.599Z,100397.00
2023-04-16T08:53:03.517Z,100402.50
2023-04-16T08:56:09.797Z,100408.81
2023-04-16T08:59:12.689Z,100405.47
2023-04-16T09:02:15.504Z,100399.28
2023-04-16T09:05:19.113Z,100408.78
2023-04-16T09:08:21.571Z,100408.94
2023-04-16T09:11:24.418Z,100408.94
2023-04-16T09:14:27.056Z,100403.09
2023-04-16T09:17:29.717Z,100414.88
2023-04-16T09:20:32.046Z,100416.41
2023-04-16T09:23:35.371Z,100420.75
2023-04-16T09:26:37.886Z,100421.22
2023-04-16T09:29:41.669Z,100424.81
2023-04-16T09:32:43.902Z,100420.88
2023-04-16T09:35:48.070Z,100434.91
2023-04-16T09:38:52.435Z,100425.84
2023-04-16T09:41:55.289Z,100428.47
2023-04-16T09:45:00.329Z,100432.66
2023-04-16T09:48:05.962Z,100437.13
2023-04-16T09:51:08.239Z,100429.81
2023-04-16T09:54:11.164Z,100429.97
2023-04-16T09:57:15.860Z,100427.88
2023-04-16T10:00:19.187Z,100432.16
2023-04-16T10:03:34.518Z,100427.84
2023-04-16T10:06:37.174Z,100428.06
2023-04-16T10:09:40.758Z,100419.53
2023-04-16T10:12:43.613Z,100417.63
2023-04-16T10:15:46.277Z,100412.12
2023-04-16T10:18:48.454Z,100411.28
2023-04-16T10:21:51.360Z,100403.53
2023-04-16T10:24:54.704Z,100408.28
2023-04-16T10:27:57.418Z,100399.63
2023-04-16T10:31:01.450Z,100395.22
2023-04-16T10:34:05.236Z,100399.34
2023-04-16T10:37:07.415Z,100390.28
2023-04-16T10:40:27.235Z,100388.03
2023-04-16T10:43:34.242Z,100380.00
2023-04-16T10:46:39.255Z,100377.94
2023-04-16T10:49:42.690Z,100374.09
2023-04-16T10:52:45.734Z,100367.03
2023-04-16T10:56:27.628Z,100365.53
2023-04-16T10:59:32.195Z,100355.94
2023-04-16T11:02:34.450Z,100359.03
2023-04-16T11:05:49.078Z,100363.59
2023-04-16T11:08:55.040Z,100363.47
2023-04-16T11:11:58.302Z,100360.44
2023-04-16T11:15:06.841Z,100367.47
2023-04-16T11:18:09.771Z,100362.72
2023-04-16T11:21:12.735Z,100365.47
2023-04-16T11:24:15.345Z,100360.62
2023-04-16T11:27:17.520Z,100352.56
2023-04-16T11:30:29.396Z,100362.06
2023-04-16T11:33:31.661Z,100353.31
2023-04-16T11:36:44.011Z,100356.13
2023-04-16T11:39:51.255Z,100359.81
2023-04-16T11:42:53.824Z,100357.12
2023-04-16T11:45:56.927Z,100350.88
2023-04-16T11:48:59.902Z,100354.34
2023-04-16T11:52:02.176Z,100350.84
2023-04-16T11:55:05.041Z,100345.06
2023-04-16T11:58:16.629Z,100344.19
2023-04-16T12:01:21.362Z,100349.22
2023-04-16T12:04:26.064Z,100349.03
2023-04-16T12:07:28.419Z,100350.22
2023-04-16T12:10:37.238Z,100349.06
2023-04-16T12:13:40.013Z,100344.22
2023-04-16T12:16:42.749Z,100330.06
2023-04-16T12:19:58.643Z,100340.88
2023-04-16T12:23:01.407Z,100333.41
2023-04-16T12:26:12.514Z,100335.13
2023-04-16T12:29:19.533Z,100326.91
2023-04-16T12:32:23.345Z,100332.63
2023-04-16T12:35:35.099Z,100320.81
2023-04-16T12:38:37.321Z,100326.84
2023-04-16T12:41:41.809Z,100327.47
2023-04-16T12:44:44.035Z,100325.59
2023-04-16T12:47:47.200Z,100324.75
2023-04-16T12:50:49.464Z,100322.91
2023-04-16T12:53:51.947Z,100310.97
2023-04-16T12:56:54.220Z,100311.16
2023-04-16T12:59:57.601Z,100305.25
2023-04-16T13:02:59.971Z,100306.03
2023-04-16T13:06:03.451Z,100306.72
2023-04-16T13:09:05.792Z,100309.53
2023-04-16T13:12:08.310Z,100297.25
2023-04-16T13:15:10.838Z,100296.53
2023-04-16T13:18:13.315Z,100294.25
2023-04-16T13:21:15.717Z,100290.63
2023-04-16T13:24:18.204Z,100287.53
2023-04-16T13:27:20.465Z,100283.34
2023-04-16T13:30:23.125Z,100292.59
2023-04-16T13:33:26.069Z,100278.38
2023-04-16T13:36:30.021Z,100281.28
2023-04-16T13:39:32.172Z,100283.81
2023-04-16T13:42:34.608Z,100281.63
2023-04-16T13:45:38.036Z,100279.62
2023-04-16T13:48:40.765Z,100275.75
2023-04-16T13:51:44.639Z,100273.56
2023-04-16T13:54:47.061Z,100267.72
2023-04-16T13:57:56.273Z,100268.47
2023-04-16T14:00:58.834Z,100277.37
2023-04-16T14:04:06.441Z,100268.84
2023-04-16T14:07:09.109Z,100268.97
2023-04-16T14:10:11.921Z,100264.81
2023-04-16T14:13:14.222Z,100260.66
2023-04-16T14:16:16.764Z,100266.75
2023-04-16T14:19:19.015Z,100264.91
2023-04-16T14:22:21.574Z,100268.44
2023-04-16T14:25:24.348Z,100263.63
2023-04-16T14:28:26.879Z,100270.22
2023-04-16T14:31:29.111Z,100265.66
2023-04-16T14:34:31.617Z,100262.25
2023-04-16T14:37:35.885Z,100253.91
2023-04-16T14:40:38.501Z,100254.53
2023-04-16T14:43:41.424Z,100258.63
2023-04-16T14:46:44.606Z,100249.03
2023-04-16T14:49:46.828Z,100254.81
2023-04-16T14:52:50.281Z,100253.06
2023-04-16T14:55:53.220Z,100249.12
2023-04-16T14:58:55.864Z,100244.88
2023-04-16T15:01:58.826Z,100248.88
2023-04-16T15:05:01.556Z,100243.81
2023-04-16T15:08:05.402Z,100246.34
2023-04-16T15:11:08.083Z,100237.75
2023-04-16T15:14:10.539Z,100233.59
2023-04-16T15:17:13.312Z,100245.50
2023-04-16T15:20:15.940Z,100230.41
2023-04-16T15:23:18.408Z,100238.56
2023-04-16T15:26:20.706Z,100240.34
2023-04-16T15:29:23.208Z,100239.59
2023-04-16T15:32:25.637Z,100234.06
2023-04-16T15:35:28.252Z,100239.00
2023-04-16T15:38:30.982Z,100243.41
2023-04-16T15:41:36.282Z,100249.16
2023-04-16T15:44:39.255Z,100247.25
2023-04-16T15:47:43.140Z,100242.78
2023-04-16T15:50:45.423Z,100247.75
2023-04-16T15:53:49.549Z,100241.00
2023-04-16T15:56:51.738Z,100231.59
2023-04-16T16:03:02.577Z,100236.53
2023-04-16T16:06:05.625Z,100243.63
2023-04-16T16:09:08.202Z,100247.13
2023-04-16T16:12:10.885Z,100244.16
2023-04-16T16:15:13.009Z,100248.50
2023-04-16T16:18:15.535Z,100242.09
2023-04-16T16:21:17.790Z,100247.50
2023-04-16T16:24:20.241Z,100246.03
2023-04-16T16:27:22.920Z,100249.16
2023-04-16T16:30:26.388Z,100257.03
2023-04-16T16:33:28.724Z,100251.94
2023-04-16T16:36:34.183Z,100241.81
2023-04-16T16:39:38.560Z,100250.41
2023-04-16T16:42:41.518Z,100252.16
2023-04-16T16:45:43.965Z,100251.88
2023-04-16T16:48:46.644Z,100251.47
2023-04-16T16:51:48.939Z,100251.34
2023-04-16T16:54:53.189Z,100251.56
2023-04-16T16:57:56.004Z,100258.50
2023-04-16T17:01:01.168Z,100255.38
2023-04-16T17:04:04.227Z,100259.53
2023-04-16T17:07:06.855Z,100248.84
2023-04-16T17:10:15.840Z,100260.44
2023-04-16T17:13:21.439Z,100258.75
2023-04-16T17:16:23.991Z,100256.19
2023-04-16T17:19:27.423Z,100263.41
2023-04-16T17:22:29.631Z,100272.22
2023-04-16T17:25:32.150Z,100261.72
2023-04-16T17:28:34.404Z,100275.91
2023-04-16T17:31:36.994Z,100273.63
2023-04-16T17:34:39.279Z,100278.16
2023-04-16T17:37:41.769Z,100279.44
2023-04-16T17:40:43.995Z,100288.72
2023-04-16T17:43:50.560Z,100289.16
2023-04-16T17:46:52.773Z,100288.19
2023-04-16T17:49:55.485Z,100283.47
2023-04-16T17:53:03.226Z,100294.13
2023-04-16T17:56:05.768Z,100288.22
2023-04-16T17:59:07.971Z,100297.22
2023-04-16T18:02:10.587Z,100296.94
2023-04-16T18:05:13.272Z,100300.16
2023-04-16T18:08:15.972Z,100305.09
2023-04-16T18:11:18.661Z,100305.53
2023-04-16T18:14:21.486Z,100307.06
2023-04-16T18:17:24.170Z,100303.81
2023-04-16T18:20:27.166Z,100311.69
2023-04-16T18:23:29.709Z,100309.72
2023-04-16T18:26:35.668Z,100318.69
2023-04-16T18:29:39.848Z,100322.44
2023-04-16T18:32:54.987Z,100306.03
2023-04-16T18:36:06.078Z,100308.41
2023-04-16T18:39:08.248Z,100309.72
2023-04-16T18:42:10.763Z,100296.78
2023-04-16T18:45:20.979Z,100302.78
2023-04-16T18:48:24.166Z,100299.00
2023-04-16T18:51:27.296Z,100291.84
2023-04-16T18:54:29.859Z,100292.34
2023-04-16T18:57:32.198Z,100293.34
2023-04-16T19:00:34.920Z,100298.94
2023-04-16T19:03:37.335Z,100292.25
2023-04-16T19:06:40.300Z,100288.75
2023-04-16T19:09:42.670Z,100288.16
2023-04-16T19:12:45.371Z,100284.66
2023-04-16T19:15:47.646Z,100290.25
2023-04-16T19:18:50.627Z,100292.38
2023-04-16T19:21:52.844Z,100287.75
2023-04-16T19:24:55.574Z,100286.47
2023-04-16T19:27:57.876Z,100286.91
2023-04-16T19:31:00.416Z,100294.91
2023-04-16T19:34:02.633Z,100292.75
2023-04-16T19:37:05.275Z,100290.50
2023-04-16T19:40:08.174Z,100296.16
2023-04-16T19:43:10.594Z,100293.50
2023-04-16T19:46:12.853Z,100288.03
2023-04-16T19:49:15.488Z,100284.50
2023-04-16T19:52:17.766Z,100285.34
2023-04-16T19:55:20.278Z,100291.37
2023-04-16T19:58:22.455Z,100287.22
2023-04-16T20:01:25.067Z,100284.53
2023-04-16T20:04:27.662Z,100285.09
2023-04-16T20:07:30.275Z,100280.87
2023-04-16T20:10:32.886Z,100275.69
2023-04-16T20:13:37.461Z,100280.75
2023-04-16T20:16:39.992Z,100277.37
2023-04-16T20:19:42.228Z,100273.84
2023-04-16T20:22:44.809Z,100279.00
2023-04-16T20:25:47.287Z,100275.63
2023-04-16T20:28:49.789Z,100282.50
2023-04-16T20:31:52.198Z,100276.78
2023-04-16T20:34:55.660Z,100282.94
2023-04-16T20:37:57.860Z,100276.97
2023-04-16T20:41:10.272Z,100278.06
2023-04-16T20:44:18.162Z,100286.47
2023-04-16T20:47:22.146Z,100279.31
2023-04-16T20:50:24.811Z,100273.84
2023-04-16T20:53:28.003Z,100275.41
2023-04-16T20:56:30.208Z,100269.50
2023-04-16T20:59:32.744Z,100262.81
2023-04-16T21:02:35.104Z,100266.31
2023-04-16T21:05:37.820Z,100270.94
2023-04-16T21:08:40.070Z,100272.91
2023-04-16T21:11:42.597Z,100280.16
2023-04-16T21:14:44.780Z,100269.97
2023-04-16T21:17:47.311Z,100269.66
2023-04-16T21:20:49.573Z,100262.06
2023-04-16T21:23:52.093Z,100272.75
2023-04-16T21:26:54.342Z,100270.50
2023-04-16T21:29:56.826Z,100267.25
2023-04-16T21:32:59.042Z,100248.09
2023-04-16T21:36:01.765Z,100249.16
2023-04-16T21:39:03.959Z,100253.50
2023-04-16T21:42:06.432Z,100249.03
2023-04-16T21:45:09.905Z,100250.56
2023-04-16T21:48:12.476Z,100256.75
2023-04-16T21:51:15.818Z,100261.75
2023-04-16T21:54:20.114Z,100249.88
2023-04-16T21:57:22.212Z,100247.78
2023-04-16T22:00:24.941Z,100243.00
2023-04-16T22:03:27.778Z,100240.78
2023-04-16T22:06:30.586Z,100245.91
2023-04-16T22:09:32.685Z,100244.06
2023-04-16T22:12:37.829Z,100235.03
2023-04-16T22:15:40.508Z,100244.56
2023-04-16T22:18:43.059Z,100238.53
2023-04-16T22:21:46.287Z,100234.16
2023-04-16T22:24:49.024Z,100239.59
2023-04-16T22:27:51.214Z,100234.25
2023-04-16T22:30:53.821Z,100227.13
2023-04-16T22:33:56.070Z,100223.63
2023-04-16T22:36:58.719Z,100220.13
2023-04-16T22:40:01.006Z,100221.28
2023-04-16T22:43:04.463Z,100223.81
2023-04-16T22:46:07.979Z,100233.16
2023-04-16T22:49:10.696Z,100220.31
2023-04-16T22:52:13.097Z,100223.81
2023-04-16T22:55:15.788Z,100224.00
2023-04-16T22:58:18.019Z,100218.62
2023-04-16T23:01:20.517Z,100206.44
2023-04-16T23:04:22.952Z,100214.16
2023-04-16T23:07:25.584Z,100217.25
2023-04-16T23:10:27.821Z,100207.47
2023-04-16T23:13:30.359Z,100207.28
2023-04-16T23:16:32.572Z,100207.72
2023-04-16T23:19:35.044Z,100203.84
2023-04-16T23:22:37.204Z,100195.59
2023-04-16T23:25:41.331Z,100197.28
2023-04-16T23:28:43.484Z,100194.94
2023-04-16T23:31:45.980Z,100198.25
2023-04-16T23:34:48.309Z,100197.41
2023-04-16T23:37:50.819Z,100188.34
2023-04-16T23:40:52.997Z,100188.59
2023-04-16T23:43:55.436Z,100189.91
2023-04-16T23:46:57.662Z,100182.03
2023-04-16T23:50:00.440Z,100184.44
2023-04-16T23:53:02.602Z,100181.25
2023-04-16T23:56:05.345Z,100173.94
2023-04-16T23:59:10.530Z,100170.44
